Time;durP1;ratioP1;P1;durP2;ratioP2;P2;SDS_P1;SDS_P2;PMS_P1;PMS_P2;Temp;Humidity;BMP_temperature;BMP_pressure;BME280_temperature;BME280_humidity;BME280_pressure;Samples;Min_cycle;Max_cycle;Signal;HPM_P1;HPM_P2
2024/01/04 00:01:48;;;;;;;7.30;3.40;;;;;;;9.28;62.20;93219.50;5084742;28;20052;-82
2024/01/04 00:04:13;;;;;;;7.18;3.10;;;;;;;9.08;62.98;93210.38;5084875;28;20387;-81
2024/01/04 00:06:44;;;;;;;4.25;0.82;;;;;;;8.95;60.75;93218.22;5084641;28;20085;-81
2024/01/04 00:09:10;;;;;;;2.42;0.77;;;;;;;9.15;60.00;93211.44;5084590;28;20039;-80
2024/01/04 00:11:36;;;;;;;4.15;0.90;;;;;;;9.37;59.19;93201.66;5084489;28;20045;-81
2024/01/04 00:14:02;;;;;;;1.67;0.60;;;;;;;9.44;58.92;93202.72;5084783;28;20059;-81
2024/01/04 00:16:28;;;;;;;0.52;0.40;;;;;;;9.53;59.19;93221.28;5084555;28;20200;-82
2024/01/04 00:18:53;;;;;;;1.77;0.80;;;;;;;9.59;58.93;93213.91;5084423;28;20039;-82
2024/01/04 00:21:18;;;;;;;4.20;1.08;;;;;;;9.64;58.25;93211.03;5084367;28;20047;-82
2024/01/04 00:23:44;;;;;;;1.17;0.52;;;;;;;9.73;58.10;93198.47;5084556;28;20017;-82
2024/01/04 00:26:09;;;;;;;2.10;0.80;;;;;;;9.75;57.61;93190.13;5084795;28;20055;-82
2024/01/04 00:28:34;;;;;;;2.88;0.50;;;;;;;9.78;57.83;93190.28;5084570;28;20036;-82
2024/01/04 00:31:00;;;;;;;0.93;0.50;;;;;;;9.82;57.65;93187.75;5084448;28;20062;-82
2024/01/04 00:33:25;;;;;;;1.73;0.52;;;;;;;9.83;57.68;93199.94;5084379;28;20059;-81
2024/01/04 00:35:51;;;;;;;4.25;0.70;;;;;;;9.86;57.56;93196.66;5083158;28;20047;-81
2024/01/04 00:38:17;;;;;;;2.38;0.77;;;;;;;9.93;57.47;93185.47;5083198;28;20047;-82
2024/01/04 00:40:43;;;;;;;2.00;0.70;;;;;;;9.94;57.48;93190.47;5084070;28;20030;-85
2024/01/04 00:43:09;;;;;;;4.55;0.70;;;;;;;9.94;57.34;93179.84;5083620;28;20025;-90
2024/01/04 00:45:35;;;;;;;0.85;0.52;;;;;;;9.98;57.40;93196.72;5084794;28;20314;-89
2024/01/04 00:48:02;;;;;;;0.77;0.47;;;;;;;9.99;57.53;93205.47;5084079;28;20111;-89
2024/01/04 00:50:27;;;;;;;1.48;0.60;;;;;;;9.99;57.36;93202.81;5083775;28;20195;-89
2024/01/04 00:52:52;;;;;;;1.02;0.50;;;;;;;10.08;57.22;93206.19;5083139;28;20145;-89
2024/01/04 00:55:18;;;;;;;2.63;0.50;;;;;;;10.09;57.45;93198.97;5085381;28;20048;-89
2024/01/04 00:57:43;;;;;;;2.65;0.70;;;;;;;10.14;56.52;93207.56;5083713;28;20095;-89
2024/01/04 01:00:09;;;;;;;2.08;0.52;;;;;;;10.19;56.63;93226.00;5082813;28;20017;-85
2024/01/04 01:02:34;;;;;;;6.25;1.40;;;;;;;10.21;57.16;93220.34;5083682;28;20020;-85
2024/01/04 01:05:00;;;;;;;5.30;1.80;;;;;;;10.06;58.09;93226.28;5084301;28;20016;-86
2024/01/04 01:07:26;;;;;;;6.40;2.08;;;;;;;10.07;58.96;93215.28;5083851;28;20036;-86
2024/01/04 01:09:52;;;;;;;10.77;3.22;;;;;;;9.90;60.33;93218.09;5083939;28;20118;-86
2024/01/04 01:12:17;;;;;;;5.68;2.65;;;;;;;9.74;60.99;93192.03;5082464;28;20354;-86
2024/01/04 01:14:43;;;;;;;2.53;1.05;;;;;;;9.52;60.83;93209.06;5082403;28;20020;-86
2024/01/04 01:17:08;;;;;;;6.88;3.10;;;;;;;9.40;62.39;93195.66;5082421;28;20025;-85
2024/01/04 01:19:34;;;;;;;6.72;3.40;;;;;;;9.28;63.18;93203.56;5084362;28;20029;-87
2024/01/04 01:21:59;;;;;;;7.13;3.45;;;;;;;9.14;63.84;93206.44;5082906;28;20025;-88
2024/01/04 01:24:24;;;;;;;6.55;3.15;;;;;;;8.98;64.37;93216.81;5083158;28;20028;-88
2024/01/04 01:26:50;;;;;;;6.30;3.08;;;;;;;8.83;64.97;93228.72;5082820;28;20051;-88
2024/01/04 01:29:15;;;;;;;9.43;2.75;;;;;;;8.66;65.71;93232.22;5083118;28;20032;-87
2024/01/04 01:31:41;;;;;;;8.23;3.47;;;;;;;8.53;66.27;93239.28;5083071;28;20050;-87
2024/01/04 01:34:07;;;;;;;7.05;3.35;;;;;;;8.43;66.90;93235.06;5082617;28;20119;-82
2024/01/04 01:36:32;;;;;;;8.38;3.38;;;;;;;8.34;67.30;93236.91;5083459;28;20024;-82
2024/01/04 01:38:57;;;;;;;6.82;3.33;;;;;;;8.19;67.74;93230.22;5083101;28;20024;-82
2024/01/04 01:41:23;;;;;;;7.78;3.63;;;;;;;8.13;68.37;93231.47;5083491;28;20036;-83
2024/01/04 01:43:48;;;;;;;8.77;3.83;;;;;;;8.08;68.68;93228.97;5083114;28;20307;-85
2024/01/04 01:46:14;;;;;;;9.23;3.67;;;;;;;7.96;68.89;93239.44;5083801;28;20024;-85
2024/01/04 01:48:39;;;;;;;9.23;2.95;;;;;;;7.87;69.21;93217.41;5082867;28;20327;-84
2024/01/04 01:51:05;;;;;;;9.05;3.30;;;;;;;7.79;69.51;93232.22;5081721;28;20032;-85
2024/01/04 01:53:30;;;;;;;10.25;3.40;;;;;;;7.72;69.92;93231.91;5084038;28;20028;-85
2024/01/04 01:55:56;;;;;;;10.57;4.45;;;;;;;7.72;70.29;93242.53;5083000;28;20031;-83
2024/01/04 01:58:21;;;;;;;8.68;4.20;;;;;;;7.68;70.45;93231.75;5083278;28;20032;-81
2024/01/04 02:00:47;;;;;;;8.88;3.65;;;;;;;7.64;70.60;93225.50;5082042;28;20100;-81
2024/01/04 02:03:14;;;;;;;10.05;3.65;;;;;;;7.62;70.67;93238.28;5082790;28;20024;-82
2024/01/04 02:05:39;;;;;;;7.40;3.17;;;;;;;7.57;70.84;93225.16;5083004;28;20134;-81
2024/01/04 02:08:05;;;;;;;7.35;2.80;;;;;;;7.55;70.55;93241.41;5082754;28;20024;-81
2024/01/04 02:10:30;;;;;;;7.35;3.38;;;;;;;7.56;71.07;93226.25;5082756;28;20070;-81
2024/01/04 02:12:56;;;;;;;7.85;3.17;;;;;;;7.55;71.36;93233.44;5082928;28;20263;-81
2024/01/04 02:15:21;;;;;;;7.30;3.67;;;;;;;7.57;71.26;93230.47;5082600;28;20021;-81
2024/01/04 02:17:47;;;;;;;5.53;2.97;;;;;;;7.52;71.33;93246.53;5082826;28;20036;-81
2024/01/04 02:20:12;;;;;;;9.02;3.28;;;;;;;7.52;71.34;93227.97;5082759;28;20091;-81
2024/01/04 02:22:42;;;;;;;8.90;2.97;;;;;;;7.52;71.43;93225.31;5082520;28;20180;-81
2024/01/04 02:25:08;;;;;;;6.63;3.35;;;;;;;7.44;71.47;93234.81;5082575;28;20025;-81
2024/01/04 02:27:33;;;;;;;8.38;3.08;;;;;;;7.41;71.86;93228.25;5082711;28;20035;-81
2024/01/04 02:29:59;;;;;;;8.20;3.38;;;;;;;7.41;71.93;93228.25;5082633;28;20016;-81
2024/01/04 02:32:24;;;;;;;6.43;3.13;;;;;;;7.42;72.17;93216.53;5081476;28;20028;-83
2024/01/04 02:34:49;;;;;;;7.85;3.22;;;;;;;7.42;72.12;93216.53;5082619;28;20024;-83
2024/01/04 02:37:15;;;;;;;9.52;3.10;;;;;;;7.39;72.23;93201.25;5082525;28;20035;-83
2024/01/04 02:39:40;;;;;;;9.10;3.50;;;;;;;7.40;72.23;93189.56;5082342;28;20016;-83
2024/01/04 02:42:06;;;;;;;5.72;3.08;;;;;;;7.41;71.98;93185.84;5082705;28;20021;-83
2024/01/04 02:44:31;;;;;;;5.70;2.63;;;;;;;7.44;71.93;93182.53;5082708;28;20044;-83
2024/01/04 02:46:56;;;;;;;7.75;2.90;;;;;;;7.48;71.90;93181.94;5081599;28;20024;-83
2024/01/04 02:49:22;;;;;;;7.68;2.95;;;;;;;7.42;71.81;93176.78;5082350;28;20032;-83
2024/01/04 02:51:47;;;;;;;5.75;2.17;;;;;;;7.41;71.97;93159.31;5082566;28;20020;-83
2024/01/04 02:54:13;;;;;;;5.55;2.47;;;;;;;7.46;71.73;93157.59;5082099;28;20246;-78
2024/01/04 02:56:38;;;;;;;5.35;2.38;;;;;;;7.44;71.45;93166.63;5082414;28;20100;-78
2024/01/04 02:59:04;;;;;;;7.00;2.88;;;;;;;7.34;71.88;93164.28;5083088;28;20091;-78
2024/01/04 03:01:29;;;;;;;7.85;2.95;;;;;;;7.29;71.97;93147.75;5082498;28;20027;-78
2024/01/04 03:03:57;;;;;;;9.65;3.30;;;;;;;7.26;71.87;93141.19;5084268;28;20092;-84
2024/01/04 03:06:24;;;;;;;5.07;2.65;;;;;;;7.20;71.95;93137.91;5086291;28;20035;-81
2024/01/04 03:08:50;;;;;;;5.32;2.35;;;;;;;7.07;72.27;93143.34;5085638;28;20339;-81
2024/01/04 03:11:16;;;;;;;8.07;2.67;;;;;;;6.97;73.02;93150.47;5086021;28;20051;-81
2024/01/04 03:13:41;;;;;;;7.72;2.95;;;;;;;6.86;73.24;93156.34;5085866;28;20020;-82
2024/01/04 03:16:06;;;;;;;5.18;2.78;;;;;;;6.82;73.75;93164.94;5084541;28;20025;-81
2024/01/04 03:18:32;;;;;;;7.40;2.63;;;;;;;6.75;74.06;93150.56;5085727;28;20044;-81
2024/01/04 03:20:57;;;;;;;8.30;3.17;;;;;;;6.74;74.32;93164.91;5084473;28;20032;-82
2024/01/04 03:23:23;;;;;;;6.95;2.83;;;;;;;6.72;74.29;93167.84;5085833;28;20332;-81
2024/01/04 03:25:49;;;;;;;9.68;3.60;;;;;;;6.74;74.21;93167.56;5084717;28;20104;-81
2024/01/04 03:28:15;;;;;;;9.73;3.55;;;;;;;6.77;73.96;93167.69;5086016;28;20233;-81
2024/01/04 03:30:40;;;;;;;5.50;2.58;;;;;;;6.79;73.98;93180.66;5086136;28;20028;-82
2024/01/04 03:33:06;;;;;;;8.75;2.90;;;;;;;6.77;73.58;93172.22;5085435;28;20062;-81
2024/01/04 03:35:31;;;;;;;7.53;3.72;;;;;;;6.71;74.09;93176.09;5085837;28;20231;-81
2024/01/04 03:37:56;;;;;;;10.82;3.10;;;;;;;6.72;73.99;93156.47;5085616;28;20047;-82
2024/01/04 03:40:22;;;;;;;8.05;3.08;;;;;;;6.70;73.97;93177.19;5085735;28;20024;-82
2024/01/04 03:42:47;;;;;;;11.30;3.88;;;;;;;6.56;74.33;93166.69;5085640;28;20020;-82
2024/01/04 03:45:13;;;;;;;7.35;3.38;;;;;;;6.59;74.52;93180.09;5085376;28;20027;-82
2024/01/04 03:47:38;;;;;;;7.30;3.60;;;;;;;6.54;74.58;93145.03;5086033;28;20109;-82
2024/01/04 03:50:05;;;;;;;6.53;3.60;;;;;;;6.49;75.02;93171.63;5085725;28;20267;-88
2024/01/04 03:52:31;;;;;;;8.25;3.13;;;;;;;6.36;75.17;93152.88;5085742;28;20016;-87
2024/01/04 03:54:57;;;;;;;7.30;3.42;;;;;;;6.33;75.58;93144.75;5085084;28;20087;-88
2024/01/04 03:57:22;;;;;;;6.35;3.17;;;;;;;6.36;75.57;93170.63;5084347;28;20291;-86
2024/01/04 03:59:48;;;;;;;10.30;3.63;;;;;;;6.32;75.52;93157.22;5084106;28;20215;-78
2024/01/04 04:02:13;;;;;;;10.77;3.30;;;;;;;6.31;75.74;93150.38;5083676;28;20020;-77
2024/01/04 04:04:38;;;;;;;7.25;3.03;;;;;;;6.28;75.97;93160.78;5083938;28;20024;-78
2024/01/04 04:07:04;;;;;;;11.65;3.78;;;;;;;6.28;76.14;93156.25;5085013;28;20378;-78
2024/01/04 04:09:29;;;;;;;6.10;3.05;;;;;;;6.28;76.08;93142.25;5085000;28;20076;-78
2024/01/04 04:11:54;;;;;;;7.10;2.97;;;;;;;6.24;76.20;93134.13;5084536;28;20044;-80
2024/01/04 04:14:21;;;;;;;5.93;2.83;;;;;;;6.20;76.33;93149.81;5084401;28;20012;-83
2024/01/04 04:16:46;;;;;;;9.15;3.40;;;;;;;6.14;76.82;93152.91;5084923;28;20031;-83
2024/01/04 04:19:11;;;;;;;6.80;3.00;;;;;;;6.15;76.63;93147.31;5084746;28;20020;-83
2024/01/04 04:21:37;;;;;;;6.38;3.15;;;;;;;6.18;76.38;93159.16;5084915;28;20196;-82
2024/01/04 04:24:02;;;;;;;6.78;2.72;;;;;;;6.15;76.68;93149.19;5085593;28;20031;-81
2024/01/04 04:26:28;;;;;;;8.95;2.95;;;;;;;6.20;76.49;93149.03;5084915;28;20028;-82
2024/01/04 04:28:54;;;;;;;12.93;3.35;;;;;;;6.21;76.34;93151.41;5083442;28;20216;-82
2024/01/04 04:31:19;;;;;;;7.32;2.60;;;;;;;6.23;76.48;93135.22;5084721;28;20033;-85
2024/01/04 04:33:46;;;;;;;5.85;3.25;;;;;;;6.19;76.49;93148.28;5084444;28;20024;-84
2024/01/04 04:36:12;;;;;;;9.10;2.90;;;;;;;6.13;76.83;93143.41;5084478;28;20092;-84
2024/01/04 04:38:38;;;;;;;5.40;2.65;;;;;;;6.21;76.44;93150.63;5084510;28;20020;-84
2024/01/04 04:41:05;;;;;;;10.80;2.90;;;;;;;6.19;76.31;93161.50;5084649;28;20043;-83
2024/01/04 04:43:31;;;;;;;10.32;3.35;;;;;;;6.11;76.65;93145.56;5084287;28;20031;-83
2024/01/04 04:45:57;;;;;;;7.55;2.60;;;;;;;6.14;76.80;93144.97;5084211;28;20024;-85
2024/01/04 04:48:23;;;;;;;8.48;3.65;;;;;;;6.11;76.82;93130.47;5083825;28;20078;-83
2024/01/04 04:50:53;;;;;;;7.45;3.00;;;;;;;6.14;76.88;93156.31;5084062;28;20085;-83
2024/01/04 04:53:18;;;;;;;12.68;4.07;;;;;;;6.12;76.49;93161.13;5084000;28;20024;-82
2024/01/04 04:55:44;;;;;;;12.40;3.38;;;;;;;6.11;76.70;93158.81;5083767;28;20378;-82
2024/01/04 04:58:10;;;;;;;9.02;3.55;;;;;;;6.12;76.92;93149.78;5084114;28;20058;-83
2024/01/04 05:00:35;;;;;;;8.88;3.13;;;;;;;6.17;76.80;93154.94;5084151;28;20255;-84
2024/01/04 05:03:01;;;;;;;12.05;3.42;;;;;;;6.17;76.69;93129.28;5084279;28;20039;-84
2024/01/04 05:05:27;;;;;;;7.72;3.00;;;;;;;6.15;76.98;93142.03;5083975;28;20028;-84
2024/01/04 05:07:53;;;;;;;7.63;3.03;;;;;;;6.18;76.54;93159.91;5083999;28;20020;-84
2024/01/04 05:10:18;;;;;;;8.73;3.22;;;;;;;6.15;76.83;93155.25;5083621;28;20255;-85
2024/01/04 05:12:43;;;;;;;12.13;2.97;;;;;;;6.15;76.97;93167.69;5084115;28;20207;-85
2024/01/04 05:15:09;;;;;;;10.07;3.03;;;;;;;6.15;76.94;93173.78;5084521;28;20020;-85
2024/01/04 05:17:34;;;;;;;9.02;3.53;;;;;;;6.16;77.02;93191.19;5084250;28;20033;-84
2024/01/04 05:20:00;;;;;;;8.25;2.97;;;;;;;6.18;76.88;93183.75;5084470;28;20024;-85
2024/01/04 05:22:25;;;;;;;8.90;3.10;;;;;;;6.19;76.91;93189.84;5083463;28;20087;-84
2024/01/04 05:24:50;;;;;;;7.47;2.95;;;;;;;6.19;76.76;93195.91;5084086;28;20093;-84
2024/01/04 05:27:16;;;;;;;8.35;3.30;;;;;;;6.17;76.15;93197.28;5083011;28;20025;-83
2024/01/04 05:29:41;;;;;;;7.72;3.50;;;;;;;6.11;76.29;93203.78;5084003;28;20016;-83
2024/01/04 05:32:07;;;;;;;8.93;3.92;;;;;;;6.11;76.31;93188.69;5083977;28;20024;-83
2024/01/04 05:34:32;;;;;;;9.88;4.18;;;;;;;6.06;76.46;93183.50;5083923;28;20120;-82
2024/01/04 05:37:00;;;;;;;10.48;4.93;;;;;;;6.00;76.63;93176.75;5083690;28;20028;-84
2024/01/04 05:39:26;;;;;;;12.15;4.78;;;;;;;5.94;77.35;93175.28;5083586;28;20024;-84
2024/01/04 05:41:52;;;;;;;14.75;6.45;;;;;;;5.94;78.03;93178.75;5083839;28;20322;-84
2024/01/04 05:44:17;;;;;;;13.55;5.53;;;;;;;5.91;78.13;93170.63;5083560;28;20020;-82
2024/01/04 05:46:43;;;;;;;15.63;5.63;;;;;;;5.93;78.06;93156.00;5083767;28;20027;-84
2024/01/04 05:49:09;;;;;;;12.73;4.85;;;;;;;5.96;78.23;93159.94;5083608;28;20016;-83
2024/01/04 05:51:34;;;;;;;12.75;4.90;;;;;;;6.02;77.97;93169.31;5083242;28;20099;-83
2024/01/04 05:54:02;;;;;;;15.77;3.60;;;;;;;6.05;77.84;93160.00;5083599;28;20028;-83
2024/01/04 05:56:27;;;;;;;7.47;3.33;;;;;;;6.10;77.61;93176.53;5083580;28;20020;-84
2024/01/04 05:58:52;;;;;;;9.25;3.55;;;;;;;6.11;77.62;93169.38;5083231;28;20315;-85
2024/01/04 06:01:18;;;;;;;12.77;6.15;;;;;;;6.13;77.14;93162.72;5083357;28;20024;-85
2024/01/04 06:03:43;;;;;;;8.25;3.47;;;;;;;6.14;77.38;93161.59;5083487;28;20062;-85
2024/01/04 06:06:12;;;;;;;12.07;4.22;;;;;;;6.13;77.09;93177.81;5082173;28;20040;-85
2024/01/04 06:08:37;;;;;;;9.45;3.25;;;;;;;6.08;77.14;93191.91;5081539;28;20044;-84
2024/01/04 06:11:06;;;;;;;9.50;3.25;;;;;;;6.06;77.29;93191.44;5083055;28;20036;-84
2024/01/04 06:13:31;;;;;;;9.57;3.00;;;;;;;6.04;77.22;93185.66;5083428;28;20028;-84
2024/01/04 06:15:57;;;;;;;10.48;3.50;;;;;;;6.08;77.29;93194.56;5083493;28;20062;-87
2024/01/04 06:18:22;;;;;;;9.27;3.22;;;;;;;6.08;77.14;93189.28;5083348;28;20028;-88
2024/01/04 06:20:48;;;;;;;9.57;3.83;;;;;;;6.08;77.22;93188.50;5083458;28;20091;-88
2024/01/04 06:23:15;;;;;;;11.02;4.55;;;;;;;6.07;77.29;93193.00;5082093;28;20067;-85
2024/01/04 06:25:40;;;;;;;8.95;4.10;;;;;;;6.12;77.49;93206.09;5083199;28;20039;-85
2024/01/04 06:28:06;;;;;;;8.23;4.38;;;;;;;6.18;77.24;93198.84;5083155;28;20028;-86
2024/01/04 06:30:34;;;;;;;11.15;3.65;;;;;;;6.15;77.40;93197.59;5082208;28;20100;-86
2024/01/04 06:32:59;;;;;;;14.45;4.60;;;;;;;6.22;77.36;93190.00;5083154;28;20058;-86
2024/01/04 06:35:25;;;;;;;10.68;4.38;;;;;;;6.30;77.18;93200.94;5083085;28;20250;-84
2024/01/04 06:37:51;;;;;;;13.50;4.70;;;;;;;6.26;77.21;93184.09;5083835;28;20021;-84
2024/01/04 06:40:16;;;;;;;13.90;4.70;;;;;;;6.29;77.21;93197.53;5087088;28;20020;-85
2024/01/04 06:42:42;;;;;;;10.85;4.88;;;;;;;6.35;77.14;93190.22;5087278;28;20193;-85
2024/01/04 06:45:08;;;;;;;11.38;5.32;;;;;;;6.42;77.11;93193.22;5087119;28;20028;-85
2024/01/04 06:47:33;;;;;;;12.40;5.75;;;;;;;6.52;76.80;93179.75;5085686;28;20032;-84
2024/01/04 06:49:59;;;;;;;15.15;4.80;;;;;;;6.57;76.84;93174.34;5086938;28;20051;-85
2024/01/04 06:52:24;;;;;;;12.15;5.50;;;;;;;6.68;76.66;93174.06;5085668;28;20024;-83
2024/01/04 06:54:50;;;;;;;9.38;4.20;;;;;;;6.83;76.42;93176.28;5085942;28;20062;-78
2024/01/04 06:57:16;;;;;;;8.48;3.58;;;;;;;6.93;76.16;93180.53;5086632;28;20047;-79
2024/01/04 06:59:42;;;;;;;8.95;3.17;;;;;;;7.06;75.80;93176.22;5086453;28;20215;-81
2024/01/04 07:02:07;;;;;;;7.63;3.08;;;;;;;7.14;75.85;93175.47;5085189;28;20020;-82
2024/01/04 07:04:32;;;;;;;8.77;2.65;;;;;;;7.26;75.04;93191.56;5087008;28;20021;-84
2024/01/04 07:06:58;;;;;;;6.20;2.20;;;;;;;7.39;74.51;93190.66;5086646;28;20074;-82
2024/01/04 07:09:23;;;;;;;5.50;2.28;;;;;;;7.48;74.14;93195.97;5086321;28;20040;-83
2024/01/04 07:11:48;;;;;;;7.43;2.35;;;;;;;7.52;73.92;93193.50;5086227;28;20066;-83
2024/01/04 07:14:14;;;;;;;5.25;2.63;;;;;;;7.63;73.70;93198.19;5084960;28;20086;-81
2024/01/04 07:16:46;;;;;;;10.07;2.70;;;;;;;7.77;73.38;93203.34;5086343;28;20030;-86
2024/01/04 07:19:12;;;;;;;10.10;2.78;;;;;;;7.90;72.85;93196.34;5086431;28;20020;-85
2024/01/04 07:21:38;;;;;;;6.65;2.85;;;;;;;7.94;72.72;93196.50;5086221;28;20020;-88
2024/01/04 07:24:04;;;;;;;11.35;2.95;;;;;;;8.06;72.37;93199.31;5085121;28;20032;-81
2024/01/04 07:26:30;;;;;;;7.57;2.80;;;;;;;8.17;71.59;93208.50;5086403;28;20013;-83
2024/01/04 07:28:55;;;;;;;8.95;3.33;;;;;;;8.24;71.68;93195.56;5086161;28;20021;-83
2024/01/04 07:31:21;;;;;;;12.43;3.50;;;;;;;8.33;71.32;93192.09;5085956;28;20065;-83
2024/01/04 07:33:46;;;;;;;9.93;4.43;;;;;;;8.46;70.96;93177.88;5086140;28;20001;-84
2024/01/04 07:36:11;;;;;;;13.77;5.85;;;;;;;8.57;70.74;93160.53;5084255;28;20020;-77
2024/01/04 07:38:37;;;;;;;10.98;4.53;;;;;;;8.61;70.52;93155.38;5085618;28;20250;-76
2024/01/04 07:41:03;;;;;;;11.02;4.38;;;;;;;8.70;69.63;93150.03;5085352;28;20028;-75
2024/01/04 07:43:29;;;;;;;12.25;4.60;;;;;;;8.77;69.31;93148.44;5085535;28;20104;-77
2024/01/04 07:45:54;;;;;;;12.55;4.47;;;;;;;8.90;68.72;93140.56;5085477;28;20017;-78
2024/01/04 07:48:21;;;;;;;10.57;4.38;;;;;;;8.95;68.67;93135.84;5085574;28;20088;-90
2024/01/04 07:50:46;;;;;;;11.45;4.25;;;;;;;9.03;68.30;93144.88;5085344;28;20319;-84
2024/01/04 07:53:12;;;;;;;6.40;3.40;;;;;;;9.12;67.46;93131.53;5085766;28;20058;-76
2024/01/04 07:55:38;;;;;;;10.07;3.70;;;;;;;9.11;67.63;93136.06;5085529;28;20020;-77
2024/01/04 07:58:03;;;;;;;9.82;3.92;;;;;;;9.18;67.58;93130.25;5085540;28;20020;-78
2024/01/04 08:00:30;;;;;;;9.75;3.00;;;;;;;9.22;67.56;93123.22;5085227;28;20012;-75
2024/01/04 08:02:55;;;;;;;8.80;3.22;;;;;;;9.33;66.68;93121.72;5084885;28;20039;-75
2024/01/04 08:05:21;;;;;;;6.15;2.85;;;;;;;9.28;66.99;93108.63;5085198;28;20048;-80
2024/01/04 08:07:46;;;;;;;7.72;2.63;;;;;;;9.28;66.76;93098.00;5084751;28;20069;-79
2024/01/04 08:10:12;;;;;;;9.57;3.55;;;;;;;9.28;66.79;93094.53;5084534;28;20028;-83
2024/01/04 08:12:40;;;;;;;6.28;2.35;;;;;;;9.31;67.16;93102.66;5084798;28;20075;-79
2024/01/04 08:15:08;;;;;;;20.73;3.45;;;;;;;9.33;67.22;93094.34;5084604;28;20017;-79
2024/01/04 08:17:33;;;;;;;21.88;4.25;;;;;;;9.43;66.96;93097.41;5084665;28;20022;-77
2024/01/04 08:19:59;;;;;;;15.63;4.25;;;;;;;9.53;66.67;93096.25;5084745;28;20052;-77
2024/01/04 08:22:25;;;;;;;10.32;3.25;;;;;;;9.58;68.13;93108.56;5084457;28;20270;-75
2024/01/04 08:24:50;;;;;;;10.93;3.13;;;;;;;9.66;69.02;93096.31;5084286;28;20023;-77
2024/01/04 08:27:19;;;;;;;20.08;2.75;;;;;;;9.78;67.84;93115.75;5084344;28;20287;-80
2024/01/04 08:29:48;;;;;;;9.27;2.72;;;;;;;9.81;65.53;93103.69;5084219;28;20024;-80
2024/01/04 08:32:17;;;;;;;8.68;2.30;;;;;;;9.77;65.16;93082.28;5084037;28;20086;-79
2024/01/04 08:34:43;;;;;;;15.90;2.92;;;;;;;9.69;64.88;93096.44;5083911;28;20042;-81
2024/01/04 08:37:09;;;;;;;11.63;2.95;;;;;;;9.66;65.22;93123.69;5084091;28;20092;-80
2024/01/04 08:39:35;;;;;;;12.32;3.03;;;;;;;9.74;65.19;93095.44;5084243;28;20032;-80
2024/01/04 08:42:00;;;;;;;11.70;3.65;;;;;;;9.83;65.06;93080.19;5084236;28;20024;-79
2024/01/04 08:44:26;;;;;;;9.65;3.63;;;;;;;9.84;64.93;93098.47;5083995;28;20089;-80
2024/01/04 08:46:52;;;;;;;13.70;3.15;;;;;;;9.80;65.11;93105.56;5083582;28;20093;-80
2024/01/04 08:49:18;;;;;;;10.52;3.58;;;;;;;9.86;65.26;93116.03;5083741;28;20314;-83
2024/01/04 08:51:43;;;;;;;15.60;4.30;;;;;;;9.91;65.04;93113.94;5083947;28;20024;-83
2024/01/04 08:54:09;;;;;;;14.18;4.07;;;;;;;9.97;64.95;93104.66;5084471;28;20231;-83
2024/01/04 08:56:35;;;;;;;16.05;3.83;;;;;;;10.05;64.65;93097.69;5084079;28;20027;-84
2024/01/04 08:59:02;;;;;;;11.55;4.47;;;;;;;10.12;64.42;93103.25;5083931;28;20024;-81
2024/01/04 09:01:28;;;;;;;10.95;4.10;;;;;;;10.22;64.30;93092.19;5083753;28;20219;-81
2024/01/04 09:03:53;;;;;;;13.70;4.57;;;;;;;10.29;64.03;93080.22;5082732;28;20028;-82
2024/01/04 09:06:19;;;;;;;6.80;2.78;;;;;;;10.36;63.31;93096.47;5083755;28;20147;-81
2024/01/04 09:08:44;;;;;;;15.15;4.60;;;;;;;10.43;62.40;93088.72;5083753;28;20054;-84
2024/01/04 09:11:10;;;;;;;14.43;4.90;;;;;;;10.46;62.97;93079.28;5083571;28;20083;-81
2024/01/04 09:13:35;;;;;;;13.48;3.40;;;;;;;10.41;62.64;93070.38;5082419;28;20025;-80
2024/01/04 09:16:00;;;;;;;9.85;3.13;;;;;;;10.36;62.80;93064.50;5083514;28;20051;-81
2024/01/04 09:18:26;;;;;;;11.35;3.08;;;;;;;10.34;62.69;93066.72;5083340;28;20082;-82
2024/01/04 09:20:51;;;;;;;12.07;4.18;;;;;;;10.36;62.93;93064.50;5083351;28;20020;-83
2024/01/04 09:23:17;;;;;;;9.35;3.22;;;;;;;10.32;62.59;93067.06;5083615;28;20073;-84
2024/01/04 09:25:42;;;;;;;15.88;3.55;;;;;;;10.36;62.93;93038.66;5083686;28;20055;-83
2024/01/04 09:28:08;;;;;;;13.02;3.30;;;;;;;10.40;62.80;93033.41;5083253;28;20027;-83
2024/01/04 09:30:33;;;;;;;19.30;4.65;;;;;;;10.44;62.37;93071.59;5082044;28;20086;-82
2024/01/04 09:32:59;;;;;;;17.05;4.50;;;;;;;10.40;62.08;93036.09;5083373;28;20021;-83
2024/01/04 09:35:25;;;;;;;22.50;4.25;;;;;;;10.38;62.31;93044.44;5083148;28;20095;-80
2024/01/04 09:37:50;;;;;;;12.52;3.97;;;;;;;10.30;62.65;93049.84;5083336;28;20016;-79
2024/01/04 09:40:17;;;;;;;9.23;3.25;;;;;;;10.31;62.95;93051.41;5082742;28;20012;-80
2024/01/04 09:42:43;;;;;;;9.07;2.88;;;;;;;10.33;62.52;93046.53;5083042;28;20028;-78
2024/01/04 09:45:14;;;;;;;9.90;3.55;;;;;;;10.32;62.47;93042.28;5082916;28;20091;-79
2024/01/04 09:47:42;;;;;;;11.70;3.17;;;;;;;10.33;62.56;93043.84;5082836;28;20025;-82
2024/01/04 09:50:11;;;;;;;9.27;3.08;;;;;;;10.30;62.62;93039.19;5082814;28;20086;-80
2024/01/04 09:52:39;;;;;;;9.15;3.53;;;;;;;10.37;62.53;93034.88;5082781;28;20033;-78
2024/01/04 09:55:07;;;;;;;9.43;3.15;;;;;;;10.48;62.22;93016.56;5082909;28;20235;-77
2024/01/04 09:57:33;;;;;;;9.00;3.25;;;;;;;10.47;61.91;93022.25;5082818;28;20044;-79
2024/01/04 09:59:59;;;;;;;9.23;2.97;;;;;;;10.48;61.43;93013.13;5082842;28;20031;-78
2024/01/04 10:02:24;;;;;;;11.40;3.25;;;;;;;10.52;62.04;93019.34;5082504;28;20028;-77
2024/01/04 10:04:51;;;;;;;18.45;4.07;;;;;;;10.59;61.81;93006.25;5082551;28;20036;-78
2024/01/04 10:07:22;;;;;;;10.70;3.70;;;;;;;10.60;61.71;93010.47;5080839;28;20027;-78
2024/01/04 10:10:05;;;;;;;19.50;3.55;;;;;;;10.64;61.48;93006.81;5080247;28;20278;-78
2024/01/04 10:12:32;;;;;;;14.27;4.78;;;;;;;10.72;61.73;92986.47;5081021;28;20348;-78
2024/01/04 10:14:58;;;;;;;14.88;3.17;;;;;;;10.82;61.12;92991.34;5080765;28;20035;-78
2024/01/04 10:17:23;;;;;;;7.00;2.83;;;;;;;10.92;60.21;92976.00;5082337;28;20331;-77
2024/01/04 10:19:49;;;;;;;11.65;3.35;;;;;;;10.94;60.28;92958.56;5079884;28;20020;-77
2024/01/04 10:22:15;;;;;;;9.57;3.45;;;;;;;10.98;60.37;92959.44;5081462;28;20020;-77
2024/01/04 10:24:41;;;;;;;11.27;3.20;;;;;;;11.01;59.66;92950.78;5081418;28;20016;-77
2024/01/04 10:27:08;;;;;;;7.93;2.63;;;;;;;11.06;59.90;92938.31;5081354;28;20337;-77
2024/01/04 10:29:36;;;;;;;10.23;3.28;;;;;;;11.06;60.08;92925.00;5081164;28;20040;-76
2024/01/04 10:32:09;;;;;;;9.50;3.15;;;;;;;11.03;60.05;92926.44;5081740;28;20022;-77
2024/01/04 10:34:37;;;;;;;11.95;2.90;;;;;;;11.06;60.29;92914.31;5081982;28;20029;-78
2024/01/04 10:37:13;;;;;;;9.18;2.35;;;;;;;11.11;60.12;92890.06;5082463;28;20025;-78
2024/01/04 10:39:39;;;;;;;7.25;3.55;;;;;;;11.19;59.53;92894.47;5082146;28;20078;-78
2024/01/04 10:42:06;;;;;;;8.50;2.80;;;;;;;11.34;57.47;92898.34;5082191;28;20078;-77
2024/01/04 10:44:33;;;;;;;12.63;2.20;;;;;;;11.49;56.92;92883.47;5082499;28;20267;-78
2024/01/04 10:47:01;;;;;;;5.97;2.33;;;;;;;11.60;57.13;92879.16;5081005;28;20024;-78
2024/01/04 10:49:27;;;;;;;9.73;2.97;;;;;;;11.72;57.68;92859.63;5082049;28;20036;-77
2024/01/04 10:52:03;;;;;;;7.55;3.03;;;;;;;11.77;56.56;92878.84;5082154;28;20025;-78
2024/01/04 10:54:33;;;;;;;10.32;3.10;;;;;;;11.83;57.39;92872.13;5082197;28;20020;-77
2024/01/04 10:57:00;;;;;;;7.95;3.38;;;;;;;11.95;57.45;92881.97;5082430;28;20085;-78
2024/01/04 10:59:30;;;;;;;17.15;3.78;;;;;;;12.10;57.14;92879.66;5082031;28;20016;-78
2024/01/04 11:01:58;;;;;;;11.18;2.97;;;;;;;12.26;55.07;92877.72;5081980;28;20366;-78
2024/01/04 11:04:24;;;;;;;9.73;2.83;;;;;;;12.42;54.80;92865.13;5081992;28;20271;-78
2024/01/04 11:06:50;;;;;;;11.75;2.30;;;;;;;12.51;52.69;92867.59;5082069;28;20029;-78
2024/01/04 11:09:18;;;;;;;4.95;1.23;;;;;;;12.71;50.93;92865.72;5081894;28;20219;-78
2024/01/04 11:11:44;;;;;;;4.03;2.00;;;;;;;12.94;50.40;92871.16;5081941;28;20059;-77
2024/01/04 11:14:09;;;;;;;10.10;1.80;;;;;;;13.03;49.61;92853.00;5080607;28;20315;-79
2024/01/04 11:16:41;;;;;;;9.77;1.95;;;;;;;13.17;48.19;92843.72;5080845;28;20202;-79
2024/01/04 11:19:47;;;;;;;5.05;1.45;;;;;;;13.29;46.70;92834.75;5081920;28;20342;-79
2024/01/04 11:22:40;;;;;;;5.32;1.17;;;;;;;13.13;47.72;92832.19;5064377;28;20028;-79
2024/01/04 11:25:15;;;;;;;;;;;;;;;13.05;46.82;92837.38;5084254;28;20051;-78
2024/01/04 11:27:41;;;;;;;7.90;1.70;;;;;;;13.05;47.56;92832.03;5085393;28;19934;-79
2024/01/04 11:30:09;;;;;;;3.40;0.98;;;;;;;12.72;46.99;92845.09;5085601;28;20134;-79
2024/01/04 11:32:35;;;;;;;3.90;0.77;;;;;;;12.76;48.00;92830.72;5085510;28;20095;-80